Time;durP1;ratioP1;P1;durP2;ratioP2;P2;SDS_P1;SDS_P2;PMS_P1;PMS_P2;Temp;Humidity;BMP_temperature;BMP_pressure;BME280_temperature;BME280_humidity;BME280_pressure;Samples;Min_cycle;Max_cycle;Signal;HPM_P1;HPM_P2
2024/04/15 00:04:12;;;;;;;0.00;0.00;;;;;;;;;;33607128;26;20362;-77
2024/04/15 00:19:18;;;;;;;0.00;0.00;;;;;;;;;;33615336;26;20270;-77
2024/04/15 00:34:24;;;;;;;0.00;0.00;;;;;;;;;;33469855;26;20255;-77
2024/04/15 00:49:37;;;;;;;0.00;0.00;;;;;;;;;;33453294;26;20268;-77
2024/04/15 01:05:09;;;;;;;0.00;0.00;;;;;;;;;;33454582;26;20689;-77
2024/04/15 01:20:16;;;;;;;0.00;0.00;;;;;;;;;;33440468;26;20273;-77
2024/04/15 01:35:22;;;;;;;0.00;0.00;;;;;;;;;;33442205;26;20711;-77
2024/04/15 01:50:28;;;;;;;0.00;0.00;;;;;;;;;;33457015;26;20713;-77
2024/04/15 02:05:36;;;;;;;0.00;0.00;;;;;;;;;;33470540;26;20252;-77
2024/04/15 02:20:42;;;;;;;0.00;0.00;;;;;;;;;;33471801;26;20275;-77
2024/04/15 02:35:48;;;;;;;0.00;0.00;;;;;;;;;;33419417;26;20292;-78
2024/04/15 02:50:55;;;;;;;0.00;0.00;;;;;;;;;;33432837;26;20281;-77
2024/04/15 03:06:27;;;;;;;0.00;0.00;;;;;;;;;;33426565;26;20261;-77
2024/04/15 03:21:33;;;;;;;0.00;0.00;;;;;;;;;;33432296;26;20269;-77
2024/04/15 03:36:40;;;;;;;0.00;0.00;;;;;;;;;;33366260;26;20552;-77
2024/04/15 03:51:46;;;;;;;0.00;0.00;;;;;;;;;;33369408;26;20314;-77
2024/04/15 04:07:20;;;;;;;0.00;0.00;;;;;;;;;;33370371;26;20350;-77
2024/04/15 04:22:27;;;;;;;0.00;0.00;;;;;;;;;;33362189;26;20729;-77
2024/04/15 04:37:33;;;;;;;0.00;0.00;;;;;;;;;;33376974;26;20273;-78
2024/04/15 04:52:39;;;;;;;0.00;0.00;;;;;;;;;;33360224;26;20815;-78
2024/04/15 05:08:12;;;;;;;0.00;0.00;;;;;;;;;;33372017;26;20710;-78
2024/04/15 05:23:18;;;;;;;0.00;0.00;;;;;;;;;;33428355;26;20302;-78
2024/04/15 05:38:25;;;;;;;0.00;0.00;;;;;;;;;;33566598;26;20722;-78
2024/04/15 05:53:31;;;;;;;0.00;0.00;;;;;;;;;;33586300;26;20709;-78
2024/04/15 06:09:03;;;;;;;0.00;0.00;;;;;;;;;;33564593;26;20266;-78
2024/04/15 06:24:10;;;;;;;0.00;0.00;;;;;;;;;;33511428;26;20623;-78
2024/04/15 06:39:16;;;;;;;0.00;0.00;;;;;;;;;;33492609;26;20269;-78
2024/04/15 06:54:22;;;;;;;0.00;0.00;;;;;;;;;;33457183;26;20322;-78
2024/04/15 07:09:55;;;;;;;0.00;0.00;;;;;;;;;;33458386;26;20357;-78
2024/04/15 07:25:04;;;;;;;0.00;0.00;;;;;;;;;;33438265;26;20264;-78
2024/04/15 07:40:11;;;;;;;0.00;0.00;;;;;;;;;;33412106;26;20308;-78
2024/04/15 07:55:17;;;;;;;0.00;0.00;;;;;;;;;;33416924;26;20618;-78
2024/04/15 08:10:49;;;;;;;0.00;0.00;;;;;;;;;;33396256;26;20276;-78
2024/04/15 08:25:58;;;;;;;0.00;0.00;;;;;;;;;;33404922;26;20258;-78
2024/04/15 08:41:05;;;;;;;0.00;0.00;;;;;;;;;;33392823;26;20605;-78
2024/04/15 08:56:13;;;;;;;0.00;0.00;;;;;;;;;;33377345;26;20719;-78
2024/04/15 09:11:46;;;;;;;0.00;0.00;;;;;;;;;;33384624;26;20795;-78
2024/04/15 09:26:53;;;;;;;0.00;0.00;;;;;;;;;;33468284;26;20272;-78
2024/04/15 09:41:59;;;;;;;0.00;0.00;;;;;;;;;;33596998;26;20249;-77
2024/04/15 09:57:07;;;;;;;0.00;0.00;;;;;;;;;;33610851;26;20265;-77
2024/04/15 10:12:39;;;;;;;0.00;0.00;;;;;;;;;;33586489;26;20260;-79
2024/04/15 10:27:46;;;;;;;0.00;0.00;;;;;;;;;;33503385;26;20764;-77
2024/04/15 10:42:52;;;;;;;0.00;0.00;;;;;;;;;;33413586;26;20297;-77
2024/04/15 10:57:59;;;;;;;0.00;0.00;;;;;;;;;;33446124;26;20275;-78
2024/04/15 11:13:32;;;;;;;0.00;0.00;;;;;;;;;;33453252;26;20252;-77
2024/04/15 11:28:38;;;;;;;0.00;0.00;;;;;;;;;;33461309;26;20291;-78
2024/04/15 11:43:44;;;;;;;0.00;0.00;;;;;;;;;;33458751;26;20544;-77
2024/04/15 11:58:50;;;;;;;0.00;0.00;;;;;;;;;;33464926;26;20571;-77
2024/04/15 12:14:23;;;;;;;0.00;0.00;;;;;;;;;;33459851;26;20358;-77
2024/04/15 12:29:29;;;;;;;0.00;0.00;;;;;;;;;;33413654;26;20362;-78
2024/04/15 12:44:35;;;;;;;0.00;0.00;;;;;;;;;;33434550;26;20338;-77
2024/04/15 12:59:41;;;;;;;0.00;0.00;;;;;;;;;;33432515;26;20440;-78
2024/04/15 13:15:14;;;;;;;0.00;0.00;;;;;;;;;;33438258;26;20253;-77
2024/04/15 13:30:20;;;;;;;0.10;0.10;;;;;;;;;;33437479;26;20259;-77
2024/04/15 13:45:26;;;;;;;0.00;0.00;;;;;;;;;;33464828;26;20281;-77
2024/04/15 14:00:33;;;;;;;0.00;0.00;;;;;;;;;;33454357;26;20801;-77
2024/04/15 14:16:05;;;;;;;0.00;0.00;;;;;;;;;;33468939;26;20251;-77
2024/04/15 14:31:11;;;;;;;0.00;0.00;;;;;;;;;;33484871;26;20588;-77
2024/04/15 14:46:18;;;;;;;0.00;0.00;;;;;;;;;;33483784;26;20298;-77
2024/04/15 15:01:24;;;;;;;0.00;0.00;;;;;;;;;;33473814;26;20308;-78
2024/04/15 15:16:56;;;;;;;0.00;0.00;;;;;;;;;;33474939;26;20256;-78
2024/04/15 15:32:04;;;;;;;0.00;0.00;;;;;;;;;;33486595;26;20994;-78
2024/04/15 15:47:11;;;;;;;0.00;0.00;;;;;;;;;;33462299;26;20329;-77
2024/04/15 16:02:17;;;;;;;0.00;0.00;;;;;;;;;;33432919;26;20256;-77
2024/04/15 16:17:30;;;;;;;0.00;0.00;;;;;;;;;;33449675;26;20366;-77
2024/04/15 16:32:37;;;;;;;0.00;0.00;;;;;;;;;;33457415;26;20265;-77
2024/04/15 16:47:45;;;;;;;0.00;0.00;;;;;;;;;;33434537;26;20298;-77
2024/04/15 17:02:54;;;;;;;0.00;0.00;;;;;;;;;;33442065;26;20335;-77
2024/04/15 17:18:07;;;;;;;0.10;0.10;;;;;;;;;;33452687;26;20261;-76
2024/04/15 17:33:13;;;;;;;0.00;0.00;;;;;;;;;;33606047;26;20323;-74
2024/04/15 17:48:20;;;;;;;0.00;0.00;;;;;;;;;;33631667;26;20259;-74
2024/04/15 18:03:26;;;;;;;0.00;0.00;;;;;;;;;;33621139;26;20318;-73
2024/04/15 18:18:40;;;;;;;0.00;0.00;;;;;;;;;;33621706;26;20268;-74
2024/04/15 18:33:46;;;;;;;0.00;0.00;;;;;;;;;;33434653;26;20265;-74
2024/04/15 18:48:53;;;;;;;0.00;0.00;;;;;;;;;;33404047;26;20314;-73
2024/04/15 19:03:59;;;;;;;0.00;0.00;;;;;;;;;;33381915;26;20277;-73
2024/04/15 19:19:12;;;;;;;0.00;0.00;;;;;;;;;;33376119;26;20711;-73
2024/04/15 19:34:18;;;;;;;0.00;0.00;;;;;;;;;;33414687;26;20553;-75
2024/04/15 19:49:24;;;;;;;0.00;0.00;;;;;;;;;;33392684;26;20732;-75
2024/04/15 20:04:31;;;;;;;0.00;0.00;;;;;;;;;;33399365;26;20819;-75
2024/04/15 20:19:49;;;;;;;0.00;0.00;;;;;;;;;;33384401;26;20315;-76
2024/04/15 20:34:57;;;;;;;0.00;0.00;;;;;;;;;;33604500;26;20621;-73
2024/04/15 20:50:08;;;;;;;0.00;0.00;;;;;;;;;;33612389;26;20284;-76
2024/04/15 21:05:14;;;;;;;0.20;0.20;;;;;;;;;;33627493;26;20352;-74
2024/04/15 21:20:27;;;;;;;0.00;0.00;;;;;;;;;;33626308;26;20251;-74
2024/04/15 21:35:36;;;;;;;0.10;0.10;;;;;;;;;;33615138;26;20385;-75
2024/04/15 21:50:42;;;;;;;0.00;0.00;;;;;;;;;;33611592;26;20607;-75
2024/04/15 22:05:48;;;;;;;0.10;0.10;;;;;;;;;;33621124;26;20337;-75
2024/04/15 22:21:01;;;;;;;0.10;0.10;;;;;;;;;;33636937;26;20647;-74
2024/04/15 22:36:08;;;;;;;0.00;0.00;;;;;;;;;;33405634;26;20265;-75
2024/04/15 22:51:14;;;;;;;0.10;0.10;;;;;;;;;;33410820;26;20626;-75
2024/04/15 23:06:20;;;;;;;0.00;0.00;;;;;;;;;;33417903;26;20245;-74
2024/04/15 23:21:32;;;;;;;0.10;0.10;;;;;;;;;;33434195;26;20623;-75
2024/04/15 23:36:43;;;;;;;0.13;0.13;;;;;;;;;;33638772;26;20259;-74
2024/04/15 23:51:49;;;;;;;0.00;0.00;;;;;;;;;;33631572;26;20646;-75
